createdAt,value
2019-04-01T00:00:43.532Z,6.78
2019-04-01T00:03:29.852Z,6.05
2019-04-01T00:06:16.194Z,6.15
2019-04-01T00:09:02.491Z,6.15
2019-04-01T00:11:49.907Z,5.45
2019-04-01T00:14:36.032Z,5.70
2019-04-01T00:17:22.239Z,5.35
2019-04-01T00:20:08.543Z,5.45
2019-04-01T00:22:54.895Z,5.47
2019-04-01T00:25:40.831Z,5.10
2019-04-01T00:28:27.204Z,4.72
2019-04-01T00:31:12.883Z,4.60
2019-04-01T00:33:59.363Z,4.87
2019-04-01T00:36:45.521Z,4.65
2019-04-01T00:39:31.738Z,4.80
2019-04-01T00:42:23.047Z,4.75
2019-04-01T00:45:11.352Z,4.37
2019-04-01T00:47:57.656Z,4.30
2019-04-01T00:50:43.795Z,4.35
2019-04-01T00:53:29.961Z,4.05
2019-04-01T00:56:16.459Z,3.83
2019-04-01T00:59:03.616Z,4.10
2019-04-01T01:01:49.261Z,3.95
2019-04-01T01:04:35.283Z,3.67
2019-04-01T01:07:21.359Z,4.00
2019-04-01T01:10:08.023Z,3.75
2019-04-01T01:12:54.251Z,3.30
2019-04-01T01:15:40.316Z,3.25
2019-04-01T01:18:26.659Z,3.42
2019-04-01T01:21:12.764Z,3.33
2019-04-01T01:23:58.916Z,3.58
2019-04-01T01:26:44.640Z,3.35
2019-04-01T01:29:31.169Z,3.50
2019-04-01T01:32:17.264Z,3.12
2019-04-01T01:35:04.208Z,3.12
2019-04-01T01:37:50.012Z,3.00
2019-04-01T01:40:35.895Z,2.90
2019-04-01T01:43:21.963Z,3.45
2019-04-01T01:46:08.163Z,2.98
2019-04-01T01:48:54.669Z,2.98
2019-04-01T01:51:42.637Z,3.10
2019-04-01T01:54:28.778Z,3.12
2019-04-01T01:57:15.114Z,2.77
2019-04-01T02:00:01.268Z,2.90
2019-04-01T02:02:47.800Z,2.60
2019-04-01T02:05:34.076Z,2.47
2019-04-01T02:08:20.211Z,2.30
2019-04-01T02:11:06.364Z,2.25
2019-04-01T02:13:52.696Z,2.10
2019-04-01T02:16:39.845Z,2.67
2019-04-01T02:19:26.219Z,2.33
2019-04-01T02:22:12.399Z,2.00
2019-04-01T02:24:59.556Z,2.25
2019-04-01T02:27:46.249Z,2.20
2019-04-01T02:30:32.464Z,2.20
2019-04-01T02:33:18.556Z,2.25
2019-04-01T02:36:04.857Z,2.17
2019-04-01T02:38:51.985Z,1.90
2019-04-01T02:41:38.456Z,2.15
2019-04-01T02:44:25.658Z,1.90
2019-04-01T02:47:11.762Z,2.08
2019-04-01T02:49:57.803Z,1.90
2019-04-01T02:52:44.084Z,1.85
2019-04-01T02:55:30.197Z,1.77
2019-04-01T02:58:16.551Z,1.65
2019-04-01T03:01:02.830Z,1.80
2019-04-01T03:03:48.975Z,1.60
2019-04-01T03:06:35.059Z,1.70
2019-04-01T03:09:21.336Z,1.70
2019-04-01T03:12:07.462Z,1.80
2019-04-01T03:14:53.732Z,1.80
2019-04-01T03:17:39.950Z,1.57
2019-04-01T03:20:26.182Z,1.60
2019-04-01T03:23:12.337Z,1.42
2019-04-01T03:25:58.629Z,1.45
2019-04-01T03:28:44.677Z,1.50
2019-04-01T03:31:31.225Z,1.50
2019-04-01T03:34:17.326Z,1.47
2019-04-01T03:37:03.919Z,1.30
2019-04-01T03:39:49.712Z,1.40
2019-04-01T03:42:35.828Z,1.15
2019-04-01T03:45:22.077Z,1.50
2019-04-01T03:48:08.433Z,1.40
2019-04-01T03:50:54.542Z,1.30
2019-04-01T03:53:40.464Z,1.45
2019-04-01T03:56:26.525Z,1.12
2019-04-01T03:59:12.828Z,1.20
2019-04-01T04:01:59.101Z,1.10
2019-04-01T04:04:45.196Z,1.40
2019-04-01T04:07:32.071Z,1.10
2019-04-01T04:10:18.351Z,1.17
2019-04-01T04:13:04.512Z,1.00
2019-04-01T04:15:50.181Z,1.17
2019-04-01T04:18:36.341Z,1.20
2019-04-01T04:21:24.159Z,0.90
2019-04-01T04:24:10.215Z,1.20
2019-04-01T04:26:56.456Z,1.10
2019-04-01T04:29:42.531Z,0.95
2019-04-01T04:32:31.551Z,1.17
2019-04-01T04:35:17.522Z,1.12
2019-04-01T04:38:03.731Z,1.00
2019-04-01T04:40:49.813Z,1.20
2019-04-01T04:43:36.085Z,1.15
2019-04-01T04:46:22.245Z,0.98
2019-04-01T04:49:08.480Z,1.10
2019-04-01T04:51:54.545Z,1.00
2019-04-01T04:54:40.716Z,1.20
2019-04-01T04:57:27.275Z,1.00
2019-04-01T05:00:17.827Z,1.05
2019-04-01T05:03:04.571Z,1.02
2019-04-01T05:05:50.865Z,0.93
2019-04-01T05:08:37.217Z,1.02
2019-04-01T05:11:23.365Z,1.00
2019-04-01T05:14:10.578Z,1.20
2019-04-01T05:16:56.764Z,0.88
2019-04-01T05:19:42.791Z,1.10
2019-04-01T05:22:28.821Z,1.00
2019-04-01T05:25:14.749Z,1.20
2019-04-01T05:28:07.503Z,1.15
2019-04-01T05:30:54.811Z,1.32
2019-04-01T05:33:54.763Z,1.32
2019-04-01T05:36:31.393Z,1.10
2019-04-01T05:39:17.497Z,1.00
2019-04-01T05:42:03.201Z,0.95
2019-04-01T05:44:49.403Z,1.15
2019-04-01T05:47:44.660Z,1.12
2019-04-01T05:50:31.027Z,1.20
2019-04-01T05:53:16.795Z,0.80
2019-04-01T05:56:03.884Z,0.93
2019-04-01T05:58:50.255Z,1.22
2019-04-01T06:01:39.831Z,0.90
2019-04-01T06:04:25.621Z,1.10
2019-04-01T06:07:11.914Z,0.93
2019-04-01T06:09:57.948Z,1.32
2019-04-01T06:12:44.969Z,1.15
2019-04-01T06:15:30.841Z,1.10
2019-04-01T06:18:17.188Z,1.10
2019-04-01T06:21:04.073Z,1.10
2019-04-01T06:23:50.337Z,1.17
2019-04-01T06:26:36.208Z,1.05
2019-04-01T06:29:22.603Z,0.90
2019-04-01T06:32:08.203Z,1.10
2019-04-01T06:34:54.471Z,0.95
2019-04-01T06:37:40.675Z,0.90
2019-04-01T06:40:26.867Z,0.88
2019-04-01T06:43:13.024Z,1.15
2019-04-01T06:45:59.230Z,0.90
2019-04-01T06:48:45.367Z,0.82
2019-04-01T06:51:31.502Z,0.95
2019-04-01T06:54:17.579Z,1.00
2019-04-01T06:57:03.763Z,0.90
2019-04-01T06:59:50.252Z,1.00
2019-04-01T07:02:36.219Z,1.10
2019-04-01T07:05:22.470Z,1.05
2019-04-01T07:08:09.152Z,1.10
2019-04-01T07:10:54.959Z,0.62
2019-04-01T07:13:40.673Z,1.20
2019-04-01T07:16:26.682Z,0.90
2019-04-01T07:19:12.971Z,0.62
2019-04-01T07:22:00.015Z,1.00
2019-04-01T07:24:46.081Z,0.88
2019-04-01T07:27:34.188Z,0.90
2019-04-01T07:30:20.552Z,0.85
2019-04-01T07:33:06.567Z,0.90
2019-04-01T07:35:52.608Z,0.98
2019-04-01T07:38:38.804Z,0.85
2019-04-01T07:41:25.036Z,0.80
2019-04-01T07:44:11.056Z,0.82
2019-04-01T07:46:57.391Z,0.85
2019-04-01T07:49:43.647Z,0.88
2019-04-01T07:52:30.235Z,0.70
2019-04-01T07:55:16.396Z,0.90
2019-04-01T07:58:02.423Z,0.88
2019-04-01T08:00:48.489Z,0.80
2019-04-01T08:03:34.570Z,0.90
2019-04-01T08:06:20.606Z,0.70
2019-04-01T08:09:07.572Z,1.05
2019-04-01T08:11:53.703Z,0.72
2019-04-01T08:14:39.971Z,0.60
2019-04-01T08:17:26.218Z,0.70
2019-04-01T08:20:13.216Z,0.70
2019-04-01T08:22:59.052Z,0.70
2019-04-01T08:25:47.935Z,0.70
2019-04-01T08:28:33.471Z,0.70
2019-04-01T08:31:19.639Z,0.70
2019-04-01T08:34:06.436Z,0.60
2019-04-01T08:36:52.675Z,0.68
2019-04-01T08:39:38.916Z,0.80
2019-04-01T08:42:25.071Z,0.57
2019-04-01T08:45:11.393Z,0.60
2019-04-01T08:47:57.587Z,0.65
2019-04-01T08:50:44.057Z,0.70
2019-04-01T08:53:30.037Z,0.68
2019-04-01T08:56:16.791Z,0.70
2019-04-01T08:59:02.945Z,0.68
2019-04-01T09:01:48.984Z,0.68
2019-04-01T09:04:35.290Z,0.60
2019-04-01T09:07:21.288Z,0.70
2019-04-01T09:10:07.139Z,0.45
2019-04-01T09:12:53.551Z,0.60
2019-04-01T09:15:40.987Z,0.60
2019-04-01T09:18:27.043Z,0.68
2019-04-01T09:21:13.321Z,0.60
2019-04-01T09:23:59.489Z,0.50
2019-04-01T09:26:45.687Z,0.50
2019-04-01T09:29:31.951Z,0.60
2019-04-01T09:32:18.095Z,0.60
2019-04-01T09:35:05.983Z,0.50
2019-04-01T09:37:52.128Z,0.60
2019-04-01T09:40:38.281Z,0.40
2019-04-01T09:43:24.720Z,0.50
2019-04-01T09:46:10.891Z,0.60
2019-04-01T09:48:57.274Z,0.40
2019-04-01T09:51:48.945Z,0.70
2019-04-01T09:54:31.229Z,0.53
2019-04-01T09:57:18.436Z,0.50
2019-04-01T10:00:05.677Z,0.50
2019-04-01T10:02:53.995Z,0.45
2019-04-01T10:05:40.199Z,0.40
2019-04-01T10:08:41.155Z,0.37
2019-04-01T10:11:14.153Z,0.53
2019-04-01T10:14:00.286Z,0.40
2019-04-01T10:16:46.488Z,0.30
2019-04-01T10:19:32.675Z,0.50
2019-04-01T10:22:18.553Z,0.40
2019-04-01T10:25:05.040Z,0.50
2019-04-01T10:27:51.139Z,0.35
2019-04-01T10:30:37.147Z,0.40
2019-04-01T10:33:23.802Z,0.50
2019-04-01T10:36:09.841Z,0.40
2019-04-01T10:38:56.140Z,0.47
2019-04-01T10:41:41.782Z,0.40
2019-04-01T10:44:27.484Z,0.40
2019-04-01T10:47:13.713Z,0.40
2019-04-01T10:49:59.920Z,0.37
2019-04-01T10:52:45.979Z,0.30
2019-04-01T10:55:32.188Z,0.28
2019-04-01T10:58:18.268Z,0.37
2019-04-01T11:01:04.396Z,0.30
2019-04-01T11:03:50.541Z,0.33
2019-04-01T11:06:36.757Z,0.30
2019-04-01T11:09:37.373Z,0.33
2019-04-01T11:12:10.639Z,0.30
2019-04-01T11:14:56.779Z,0.30
2019-04-01T11:17:43.916Z,0.30
2019-04-01T11:20:30.296Z,0.40
2019-04-01T11:23:16.395Z,0.40
2019-04-01T11:26:02.961Z,0.30
2019-04-01T11:28:49.251Z,0.30
2019-04-01T11:31:35.415Z,0.40
2019-04-01T11:34:21.781Z,0.30
2019-04-01T11:37:07.979Z,0.37
2019-04-01T11:39:54.087Z,0.30
2019-04-01T11:42:40.814Z,0.30
2019-04-01T11:45:26.947Z,0.33
2019-04-01T11:48:13.032Z,0.40
2019-04-01T11:50:59.328Z,0.33
2019-04-01T11:53:45.460Z,0.28
2019-04-01T11:56:31.423Z,0.40
2019-04-01T11:59:17.611Z,0.20
2019-04-01T12:02:03.696Z,0.30
2019-04-01T12:04:49.853Z,0.30
2019-04-01T12:07:37.435Z,0.40
2019-04-01T12:10:23.524Z,0.30
2019-04-01T12:13:09.755Z,0.30
2019-04-01T12:15:56.090Z,0.30
2019-04-01T12:18:42.128Z,0.30
2019-04-01T12:21:28.292Z,0.20
2019-04-01T12:24:14.446Z,0.30
2019-04-01T12:27:00.823Z,0.20
2019-04-01T12:29:48.378Z,0.20
2019-04-01T12:32:34.548Z,0.30
2019-04-01T12:35:20.793Z,0.30
2019-04-01T12:38:07.052Z,0.25
2019-04-01T12:40:53.066Z,0.30
2019-04-01T12:43:39.171Z,0.23
2019-04-01T12:46:27.120Z,0.30
2019-04-01T12:49:13.342Z,0.20
2019-04-01T12:51:59.363Z,0.20
2019-04-01T12:54:45.551Z,0.25
2019-04-01T12:57:31.763Z,0.20
2019-04-01T13:00:18.071Z,0.17
2019-04-01T13:03:05.134Z,0.30
2019-04-01T13:05:51.099Z,0.25
2019-04-01T13:08:37.380Z,0.20
2019-04-01T13:11:23.579Z,0.25
2019-04-01T13:14:09.731Z,0.30
2019-04-01T13:16:55.827Z,0.30
2019-04-01T13:19:42.147Z,0.20
2019-04-01T13:22:28.247Z,0.20
2019-04-01T13:25:15.464Z,0.30
2019-04-01T13:28:01.655Z,0.10
2019-04-01T13:30:48.175Z,0.20
2019-04-01T13:33:33.892Z,0.20
2019-04-01T13:36:21.011Z,0.15
2019-04-01T13:39:07.260Z,0.30
2019-04-01T13:41:56.180Z,0.33
2019-04-01T13:44:41.571Z,0.20
2019-04-01T13:47:27.835Z,0.30
2019-04-01T13:50:16.335Z,0.20
2019-04-01T13:53:01.213Z,0.20
2019-04-01T13:55:47.306Z,0.20
2019-04-01T13:58:33.743Z,0.53
2019-04-01T14:01:19.884Z,0.20
2019-04-01T14:04:06.315Z,0.20
2019-04-01T14:06:52.635Z,0.20
2019-04-01T14:09:38.808Z,0.40
2019-04-01T14:12:24.980Z,0.28
2019-04-01T14:15:12.035Z,0.15
2019-04-01T14:17:58.125Z,0.30
2019-04-01T14:20:44.488Z,0.15
2019-04-01T14:23:30.645Z,0.23
2019-04-01T14:26:16.804Z,0.20
2019-04-01T14:29:03.092Z,0.35
2019-04-01T14:31:49.699Z,0.30
2019-04-01T14:34:35.890Z,0.20
2019-04-01T14:37:25.640Z,0.30
2019-04-01T14:40:09.791Z,0.20
2019-04-01T14:42:55.907Z,0.20
2019-04-01T14:45:42.196Z,0.20
2019-04-01T14:48:28.539Z,0.30
2019-04-01T14:51:14.485Z,0.20
2019-04-01T14:54:00.848Z,0.20
2019-04-01T14:56:47.049Z,0.20
2019-04-01T14:59:33.351Z,0.20
2019-04-01T15:02:19.880Z,0.10
2019-04-01T15:05:05.728Z,0.25
2019-04-01T15:07:52.851Z,0.20
2019-04-01T15:10:41.064Z,0.30
2019-04-01T15:13:26.163Z,0.20
2019-04-01T15:16:12.100Z,0.17
2019-04-01T15:18:58.180Z,0.30
2019-04-01T15:21:47.210Z,0.20
2019-04-01T15:24:31.872Z,0.30
2019-04-01T15:27:17.988Z,0.20
2019-04-01T15:30:05.055Z,0.20
2019-04-01T15:32:52.165Z,0.20
2019-04-01T15:35:38.358Z,0.40
2019-04-01T15:38:26.340Z,0.20
2019-04-01T15:41:12.208Z,0.23
2019-04-01T15:43:58.359Z,0.20
2019-04-01T15:46:44.449Z,0.23
2019-04-01T15:49:30.987Z,0.28
2019-04-01T15:52:17.103Z,0.28
2019-04-01T15:55:03.512Z,0.28
2019-04-01T15:57:49.352Z,0.20
2019-04-01T16:00:35.722Z,0.30
2019-04-01T16:03:21.781Z,0.20
2019-04-01T16:06:08.379Z,0.20
2019-04-01T16:08:54.527Z,0.30
2019-04-01T16:11:40.778Z,0.30
2019-04-01T16:14:26.995Z,0.20
2019-04-01T16:17:13.100Z,0.28
2019-04-01T16:19:59.411Z,0.20
2019-04-01T16:22:45.485Z,0.30
2019-04-01T16:25:31.552Z,0.35
2019-04-01T16:28:17.979Z,0.33
2019-04-01T16:31:04.079Z,0.20
2019-04-01T16:33:50.289Z,0.23
2019-04-01T16:36:36.535Z,0.25
2019-04-01T16:39:22.659Z,0.25
2019-04-01T16:42:08.273Z,0.30
2019-04-01T16:44:54.463Z,0.30
2019-04-01T16:47:40.664Z,0.28
2019-04-01T16:50:28.614Z,0.30
2019-04-01T16:53:14.087Z,0.23
2019-04-01T16:56:00.230Z,0.30
2019-04-01T16:58:46.368Z,0.30
2019-04-01T17:01:32.483Z,0.30
2019-04-01T17:04:18.563Z,0.30
2019-04-01T17:07:05.969Z,0.30
2019-04-01T17:09:58.047Z,0.40
2019-04-01T17:12:42.663Z,0.30
2019-04-01T17:15:28.771Z,0.30
2019-04-01T17:18:15.325Z,0.30
2019-04-01T17:21:01.412Z,0.20
2019-04-01T17:23:47.624Z,0.30
2019-04-01T17:27:15.472Z,0.28
2019-04-01T17:30:01.517Z,0.20
2019-04-01T17:32:47.600Z,0.20
2019-04-01T17:35:33.731Z,0.20
2019-04-01T17:38:20.036Z,0.30
2019-04-01T17:41:06.256Z,0.20
2019-04-01T17:43:52.484Z,0.20
2019-04-01T17:46:38.811Z,0.20
2019-04-01T17:49:25.013Z,0.20
2019-04-01T17:52:11.383Z,0.15
2019-04-01T17:54:57.575Z,0.30
2019-04-01T17:57:43.672Z,0.30
2019-04-01T18:00:30.599Z,0.30
2019-04-01T18:03:16.585Z,0.40
2019-04-01T18:06:02.716Z,0.40
2019-04-01T18:08:48.874Z,0.30
2019-04-01T18:11:35.107Z,0.40
2019-04-01T18:14:21.195Z,0.45
2019-04-01T18:17:07.389Z,0.30
2019-04-01T18:19:53.539Z,0.28
2019-04-01T18:22:39.684Z,0.30
2019-04-01T18:25:25.928Z,0.25
2019-04-01T18:28:12.942Z,0.28
2019-04-01T18:30:59.237Z,0.25
2019-04-01T18:33:56.115Z,0.40
2019-04-01T18:36:34.790Z,0.20
2019-04-01T18:39:20.560Z,0.20
2019-04-01T18:42:06.807Z,0.25
2019-04-01T18:44:54.071Z,0.30
2019-04-01T18:47:40.461Z,0.33
2019-04-01T18:50:26.603Z,0.20
2019-04-01T18:53:12.303Z,0.37
2019-04-01T18:55:58.052Z,0.20
2019-04-01T18:58:44.136Z,0.40
2019-04-01T19:01:30.106Z,0.28
2019-04-01T19:04:16.146Z,0.40
2019-04-01T19:07:03.361Z,0.30
2019-04-01T19:09:50.002Z,0.30
2019-04-01T19:12:36.491Z,0.20
2019-04-01T19:15:23.147Z,0.30
2019-04-01T19:18:09.177Z,0.50
2019-04-01T19:20:59.264Z,0.30
2019-04-01T19:23:44.168Z,0.30
2019-04-01T19:26:30.505Z,0.40
2019-04-01T19:29:16.770Z,0.30
2019-04-01T19:32:02.908Z,0.30
2019-04-01T19:34:49.000Z,0.20
2019-04-01T19:37:35.320Z,0.20
2019-04-01T19:40:23.000Z,0.30
2019-04-01T19:43:09.117Z,0.20
2019-04-01T19:45:55.420Z,0.30
2019-04-01T19:48:41.619Z,0.40
2019-04-01T19:51:28.215Z,0.60
2019-04-01T19:54:15.017Z,0.40
2019-04-01T19:57:01.185Z,0.37
2019-04-01T19:59:47.420Z,0.30
2019-04-01T20:02:34.321Z,0.42
2019-04-01T20:05:21.141Z,0.40
2019-04-01T20:08:07.411Z,0.60
2019-04-01T20:10:53.594Z,0.30
2019-04-01T20:13:42.688Z,0.20
2019-04-01T20:16:27.503Z,0.30
2019-04-01T20:19:13.655Z,0.30
2019-04-01T20:21:59.777Z,0.28
2019-04-01T20:24:45.980Z,0.25
2019-04-01T20:27:32.086Z,0.40
2019-04-01T20:30:18.452Z,0.40
2019-04-01T20:33:16.854Z,0.33
2019-04-01T20:35:52.021Z,0.30
2019-04-01T20:38:39.101Z,0.42
2019-04-01T20:41:25.205Z,0.30
2019-04-01T20:44:11.445Z,0.40
2019-04-01T20:46:58.418Z,0.33
2019-04-01T20:49:44.716Z,0.50
2019-04-01T20:52:30.875Z,0.40
2019-04-01T20:55:17.083Z,0.40
2019-04-01T20:58:03.368Z,0.40
2019-04-01T21:00:49.508Z,0.50
2019-04-01T21:03:35.719Z,0.40
2019-04-01T21:06:22.066Z,0.35
2019-04-01T21:09:08.583Z,0.30
2019-04-01T21:11:54.535Z,0.40
2019-04-01T21:14:40.651Z,0.40
2019-04-01T21:17:26.659Z,0.40
2019-04-01T21:20:13.204Z,0.33
2019-04-01T21:22:59.519Z,0.30
2019-04-01T21:25:45.639Z,0.53
2019-04-01T21:28:32.028Z,0.53
2019-04-01T21:31:18.159Z,0.50
2019-04-01T21:34:07.687Z,0.40
2019-04-01T21:36:53.100Z,0.20
2019-04-01T21:39:38.928Z,0.50
2019-04-01T21:42:24.990Z,0.35
2019-04-01T21:45:11.481Z,0.35
2019-04-01T21:47:57.449Z,0.30
2019-04-01T21:50:43.780Z,0.30
2019-04-01T21:53:31.062Z,0.40
2019-04-01T21:56:17.123Z,0.37
2019-04-01T21:59:05.504Z,0.30
2019-04-01T22:01:52.216Z,0.30
2019-04-01T22:04:38.393Z,0.40
2019-04-01T22:07:24.595Z,0.50
2019-04-01T22:10:10.544Z,0.40
2019-04-01T22:12:56.806Z,0.40
2019-04-01T22:15:42.923Z,0.30
2019-04-01T22:18:29.133Z,0.40
2019-04-01T22:21:14.552Z,0.40
2019-04-01T22:24:00.375Z,0.50
2019-04-01T22:26:45.989Z,0.40
2019-04-01T22:29:31.822Z,0.50
2019-04-01T22:32:17.451Z,0.40
2019-04-01T22:35:05.302Z,0.50
2019-04-01T22:37:51.242Z,0.30
2019-04-01T22:40:37.079Z,0.30
2019-04-01T22:43:23.201Z,0.40
2019-04-01T22:46:09.111Z,0.30
2019-04-01T22:48:54.866Z,0.40
2019-04-01T22:51:40.911Z,0.30
2019-04-01T22:54:26.672Z,0.30
2019-04-01T22:57:12.295Z,0.30
2019-04-01T22:59:57.958Z,0.40
2019-04-01T23:02:43.603Z,0.30
2019-04-01T23:05:30.262Z,0.40
2019-04-01T23:08:16.047Z,0.40
2019-04-01T23:11:01.756Z,0.40
2019-04-01T23:13:48.319Z,0.40
2019-04-01T23:16:34.523Z,0.20
2019-04-01T23:19:20.136Z,0.30
2019-04-01T23:22:05.996Z,0.35
2019-04-01T23:24:51.592Z,0.40
2019-04-01T23:27:37.673Z,0.50
2019-04-01T23:30:23.472Z,0.40
2019-04-01T23:33:09.527Z,0.40
2019-04-01T23:35:55.356Z,0.30
2019-04-01T23:38:43.541Z,0.40
2019-04-01T23:41:30.634Z,0.30
2019-04-01T23:44:16.414Z,0.42
2019-04-01T23:47:02.924Z,0.47
2019-04-01T23:49:48.492Z,0.40
2019-04-01T23:52:34.307Z,0.35
2019-04-01T23:55:20.355Z,0.40
2019-04-01T23:58:05.886Z,0.40
